sensor_id;sensor_type;location;lat;lon;timestamp;pressure;altitude;pressure_sealevel;temperature;humidity
68489;BME280;55481;48.764;8.936;2023-04-25T00:00:27;96390;;;7.7;76.5
68489;BME280;55481;48.764;8.936;2023-04-25T00:02:55;96390;;;7.7;76.5
68489;BME280;55481;48.764;8.936;2023-04-25T00:05:30;96390;;;7.7;76.5
68489;BME280;55481;48.764;8.936;2023-04-25T00:07:58;96390;;;7.6;76.5
68489;BME280;55481;48.764;8.936;2023-04-25T00:10:33;96390;;;7.6;76.5
68489;BME280;55481;48.764;8.936;2023-04-25T00:13:04;96390;;;7.6;76.5
68489;BME280;55481;48.764;8.936;2023-04-25T00:17:59;96390;;;7.5;76.5
68489;BME280;55481;48.764;8.936;2023-04-25T00:20:30;96400;;;7.5;76.5
68489;BME280;55481;48.764;8.936;2023-04-25T00:23:01;96390;;;7.5;76.5
68489;BME280;55481;48.764;8.936;2023-04-25T00:30:33;96390;;;7.5;76.5
68489;BME280;55481;48.764;8.936;2023-04-25T00:33:04;96390;;;7.5;76.5
68489;BME280;55481;48.764;8.936;2023-04-25T00:38:11;96380;;;7.7;76.5
68489;BME280;55481;48.764;8.936;2023-04-25T00:40:43;96380;;;7.7;76
68489;BME280;55481;48.764;8.936;2023-04-25T00:45:38;96380;;;7.4;77
68489;BME280;55481;48.764;8.936;2023-04-25T00:48:08;96380;;;7.5;77
68489;BME280;55481;48.764;8.936;2023-04-25T00:50:39;96380;;;7.5;77
68489;BME280;55481;48.764;8.936;2023-04-25T00:58:12;96370;;;7.5;76.5
68489;BME280;55481;48.764;8.936;2023-04-25T01:00:43;96370;;;7.4;77
68489;BME280;55481;48.764;8.936;2023-04-25T01:03:13;96370;;;7.3;77
68489;BME280;55481;48.764;8.936;2023-04-25T01:08:27;96370;;;7.2;77
68489;BME280;55481;48.764;8.936;2023-04-25T01:10:57;96370;;;7.3;77
68489;BME280;55481;48.764;8.936;2023-04-25T01:13:34;96360;;;7.4;77
68489;BME280;55481;48.764;8.936;2023-04-25T01:15:52;96350;;;7.4;76.5
68489;BME280;55481;48.764;8.936;2023-04-25T01:18:22;96350;;;7.4;77
68489;BME280;55481;48.764;8.936;2023-04-25T01:20:54;96360;;;7.4;77
68489;BME280;55481;48.764;8.936;2023-04-25T01:23:19;96360;;;7.4;77
68489;BME280;55481;48.764;8.936;2023-04-25T01:25:49;96360;;;7.4;77
68489;BME280;55481;48.764;8.936;2023-04-25T01:28:19;96360;;;7.3;77
68489;BME280;55481;48.764;8.936;2023-04-25T01:30:50;96350;;;7.2;77
68489;BME280;55481;48.764;8.936;2023-04-25T01:38:22;96360;;;7;77.5
68489;BME280;55481;48.764;8.936;2023-04-25T01:43:50;96370;;;7;77
68489;BME280;55481;48.764;8.936;2023-04-25T01:46:07;96370;;;7;77
68489;BME280;55481;48.764;8.936;2023-04-25T01:51:01;96350;;;7.1;77
68489;BME280;55481;48.764;8.936;2023-04-25T01:53:32;96360;;;7.1;77
68489;BME280;55481;48.764;8.936;2023-04-25T01:56:03;96360;;;7;77
68489;BME280;55481;48.764;8.936;2023-04-25T01:58:26;96360;;;7;77
68489;BME280;55481;48.764;8.936;2023-04-25T02:03:28;96350;;;6.9;77.5
68489;BME280;55481;48.764;8.936;2023-04-25T02:05:59;96350;;;6.8;77.5
68489;BME280;55481;48.764;8.936;2023-04-25T02:08:29;96360;;;6.9;77.5
68489;BME280;55481;48.764;8.936;2023-04-25T02:11:00;96350;;;7;77
68489;BME280;55481;48.764;8.936;2023-04-25T02:16:08;96350;;;6.9;77.5
68489;BME280;55481;48.764;8.936;2023-04-25T02:18:39;96350;;;6.9;77.5
68489;BME280;55481;48.764;8.936;2023-04-25T02:21:10;96350;;;6.8;77.5
68489;BME280;55481;48.764;8.936;2023-04-25T02:23:41;96350;;;6.9;77.5
68489;BME280;55481;48.764;8.936;2023-04-25T02:26:05;96350;;;7;77
68489;BME280;55481;48.764;8.936;2023-04-25T02:33:37;96330;;;6.8;77.5
68489;BME280;55481;48.764;8.936;2023-04-25T02:36:08;96340;;;6.8;77.5
68489;BME280;55481;48.764;8.936;2023-04-25T02:38:39;96340;;;6.8;77.5
68489;BME280;55481;48.764;8.936;2023-04-25T02:41:09;96330;;;6.8;77.5
68489;BME280;55481;48.764;8.936;2023-04-25T02:43:47;96340;;;6.7;77.5
68489;BME280;55481;48.764;8.936;2023-04-25T02:46:18;96340;;;6.6;77.5
68489;BME280;55481;48.764;8.936;2023-04-25T02:48:49;96340;;;6.7;77.5
68489;BME280;55481;48.764;8.936;2023-04-25T02:51:20;96340;;;6.7;77.5
68489;BME280;55481;48.764;8.936;2023-04-25T02:53:50;96340;;;6.6;77.5
68489;BME280;55481;48.764;8.936;2023-04-25T03:01:16;96340;;;6.5;78
68489;BME280;55481;48.764;8.936;2023-04-25T03:03:46;96330;;;6.6;77.5
68489;BME280;55481;48.764;8.936;2023-04-25T03:06:18;96330;;;6.7;77.5
68489;BME280;55481;48.764;8.936;2023-04-25T03:08:49;96320;;;6.7;77
68489;BME280;55481;48.764;8.936;2023-04-25T03:11:19;96320;;;6.7;77
68489;BME280;55481;48.764;8.936;2023-04-25T03:13:50;96320;;;6.6;77.5
68489;BME280;55481;48.764;8.936;2023-04-25T03:16:21;96310;;;6.5;77.5
68489;BME280;55481;48.764;8.936;2023-04-25T03:18:51;96310;;;6.5;77.5
68489;BME280;55481;48.764;8.936;2023-04-25T03:31:31;96320;;;6.5;77.5
68489;BME280;55481;48.764;8.936;2023-04-25T03:34:02;96320;;;6.5;77.5
68489;BME280;55481;48.764;8.936;2023-04-25T03:36:33;96320;;;6.5;77.5
68489;BME280;55481;48.764;8.936;2023-04-25T03:39:03;96320;;;6.5;77.5
68489;BME280;55481;48.764;8.936;2023-04-25T03:41:34;96320;;;6.5;77.5
68489;BME280;55481;48.764;8.936;2023-04-25T03:43:58;96320;;;6.5;77.5
68489;BME280;55481;48.764;8.936;2023-04-25T03:46:29;96330;;;6.5;77.5
68489;BME280;55481;48.764;8.936;2023-04-25T03:49:00;96320;;;6.4;77.5
68489;BME280;55481;48.764;8.936;2023-04-25T03:56:32;96320;;;6.2;78
68489;BME280;55481;48.764;8.936;2023-04-25T03:59:03;96320;;;6.1;78
68489;BME280;55481;48.764;8.936;2023-04-25T04:01:34;96310;;;6.1;78
68489;BME280;55481;48.764;8.936;2023-04-25T04:04:06;96320;;;6.1;78
68489;BME280;55481;48.764;8.936;2023-04-25T04:06:35;96320;;;6;78
68489;BME280;55481;48.764;8.936;2023-04-25T04:09:19;96320;;;5.9;78
68489;BME280;55481;48.764;8.936;2023-04-25T04:11:49;96320;;;5.9;78.5
68489;BME280;55481;48.764;8.936;2023-04-25T04:14:13;96320;;;5.9;78.5
68489;BME280;55481;48.764;8.936;2023-04-25T04:16:44;96320;;;5.9;78
68489;BME280;55481;48.764;8.936;2023-04-25T04:19:15;96320;;;5.9;78
68489;BME280;55481;48.764;8.936;2023-04-25T04:21:52;96320;;;5.8;78.5
68489;BME280;55481;48.764;8.936;2023-04-25T04:24:24;96330;;;5.9;78.5
68489;BME280;55481;48.764;8.936;2023-04-25T04:26:48;96330;;;6.1;78
68489;BME280;55481;48.764;8.936;2023-04-25T04:29:19;96330;;;6.1;77.5
68489;BME280;55481;48.764;8.936;2023-04-25T04:31:50;96320;;;6.3;77.5
68489;BME280;55481;48.764;8.936;2023-04-25T04:34:21;96330;;;6.5;77
68489;BME280;55481;48.764;8.936;2023-04-25T04:36:52;96330;;;6.6;77
68489;BME280;55481;48.764;8.936;2023-04-25T04:41:55;96340;;;6.5;77
68489;BME280;55481;48.764;8.936;2023-04-25T04:44:25;96340;;;6.4;77.5
68489;BME280;55481;48.764;8.936;2023-04-25T04:46:55;96340;;;6.5;77.5
68489;BME280;55481;48.764;8.936;2023-04-25T04:49:26;96340;;;6.6;77.5
68489;BME280;55481;48.764;8.936;2023-04-25T04:54:21;96350;;;6.6;77
68489;BME280;55481;48.764;8.936;2023-04-25T05:06:07;96350;;;7;77.5
68489;BME280;55481;48.764;8.936;2023-04-25T05:08:08;96350;;;6.8;78
68489;BME280;55481;48.764;8.936;2023-04-25T05:10:38;96350;;;6.9;77.5
68489;BME280;55481;48.764;8.936;2023-04-25T05:13:09;96350;;;6.8;77.5
68489;BME280;55481;48.764;8.936;2023-04-25T05:15:40;96350;;;7;77
68489;BME280;55481;48.764;8.936;2023-04-25T05:18:11;96350;;;7;77
68489;BME280;55481;48.764;8.936;2023-04-25T05:20:42;96350;;;7;77
68489;BME280;55481;48.764;8.936;2023-04-25T05:23:12;96350;;;7;76.5
68489;BME280;55481;48.764;8.936;2023-04-25T05:25:43;96350;;;7;76.5
68489;BME280;55481;48.764;8.936;2023-04-25T05:28:14;96350;;;7.1;76.5
68489;BME280;55481;48.764;8.936;2023-04-25T05:35:48;96350;;;7;76.5
68489;BME280;55481;48.764;8.936;2023-04-25T05:40:54;96360;;;7;77
68489;BME280;55481;48.764;8.936;2023-04-25T05:43:25;96360;;;6.8;77
68489;BME280;55481;48.764;8.936;2023-04-25T05:45:56;96360;;;6.7;77.5
68489;BME280;55481;48.764;8.936;2023-04-25T05:48:20;96360;;;6.7;77.5
68489;BME280;55481;48.764;8.936;2023-04-25T05:50:50;96360;;;6.8;77.5
68489;BME280;55481;48.764;8.936;2023-04-25T05:53:21;96360;;;6.7;77.5
68489;BME280;55481;48.764;8.936;2023-04-25T05:55:52;96360;;;6.7;78
68489;BME280;55481;48.764;8.936;2023-04-25T06:03:25;96360;;;6.8;78
68489;BME280;55481;48.764;8.936;2023-04-25T06:05:55;96360;;;6.9;77.5
68489;BME280;55481;48.764;8.936;2023-04-25T06:11:09;96360;;;6.9;77.5
68489;BME280;55481;48.764;8.936;2023-04-25T06:13:40;96360;;;6.9;77.5
68489;BME280;55481;48.764;8.936;2023-04-25T06:16:12;96360;;;6.9;77.5
68489;BME280;55481;48.764;8.936;2023-04-25T06:18:34;96360;;;6.9;77.5
68489;BME280;55481;48.764;8.936;2023-04-25T06:21:05;96360;;;7;77.5
68489;BME280;55481;48.764;8.936;2023-04-25T06:23:36;96370;;;6.8;77.5
68489;BME280;55481;48.764;8.936;2023-04-25T06:26:13;96370;;;6.6;78
68489;BME280;55481;48.764;8.936;2023-04-25T06:28:42;96370;;;6.5;78.5
68489;BME280;55481;48.764;8.936;2023-04-25T06:31:15;96360;;;6.4;78.5
68489;BME280;55481;48.764;8.936;2023-04-25T06:38:42;96360;;;6.1;79
68489;BME280;55481;48.764;8.936;2023-04-25T06:41:12;96360;;;6.1;79
68489;BME280;55481;48.764;8.936;2023-04-25T06:43:44;96360;;;6.1;78.5
68489;BME280;55481;48.764;8.936;2023-04-25T06:46:14;96360;;;6.2;78.5
68489;BME280;55481;48.764;8.936;2023-04-25T06:48:46;96360;;;6.1;78.5
68489;BME280;55481;48.764;8.936;2023-04-25T06:51:16;96360;;;6.2;78.5
68489;BME280;55481;48.764;8.936;2023-04-25T06:53:47;96360;;;6.2;78.5
68489;BME280;55481;48.764;8.936;2023-04-25T06:56:18;96360;;;6.3;78
68489;BME280;55481;48.764;8.936;2023-04-25T06:58:49;96360;;;6.3;78
68489;BME280;55481;48.764;8.936;2023-04-25T07:01:26;96360;;;6.5;77.5
68489;BME280;55481;48.764;8.936;2023-04-25T07:08:58;96370;;;6.5;78
68489;BME280;55481;48.764;8.936;2023-04-25T07:11:35;96370;;;6.4;78
68489;BME280;55481;48.764;8.936;2023-04-25T07:16:22;96370;;;6.3;78
68489;BME280;55481;48.764;8.936;2023-04-25T07:18:53;96360;;;6.3;78
68489;BME280;55481;48.764;8.936;2023-04-25T07:21:26;96370;;;6.4;78
68489;BME280;55481;48.764;8.936;2023-04-25T07:23:48;96370;;;6.5;77.5
68489;BME280;55481;48.764;8.936;2023-04-25T07:26:18;96370;;;6.5;77.5
68489;BME280;55481;48.764;8.936;2023-04-25T07:28:49;96370;;;6.4;78
68489;BME280;55481;48.764;8.936;2023-04-25T07:31:20;96380;;;6.5;78
68489;BME280;55481;48.764;8.936;2023-04-25T07:33:51;96380;;;6.6;77.5
68489;BME280;55481;48.764;8.936;2023-04-25T07:46:44;96380;;;6.5;77.5
68489;BME280;55481;48.764;8.936;2023-04-25T07:49:08;96390;;;6.5;78
68489;BME280;55481;48.764;8.936;2023-04-25T07:51:38;96400;;;6.5;78
68489;BME280;55481;48.764;8.936;2023-04-25T07:56:32;96400;;;6.4;78
68489;BME280;55481;48.764;8.936;2023-04-25T07:59:03;96400;;;6.4;78
68489;BME280;55481;48.764;8.936;2023-04-25T08:01:34;96410;;;6.3;78
68489;BME280;55481;48.764;8.936;2023-04-25T08:04:04;96410;;;6.3;78
68489;BME280;55481;48.764;8.936;2023-04-25T08:14:27;96420;;;6.7;77.5
68489;BME280;55481;48.764;8.936;2023-04-25T08:16:44;96430;;;6.6;77.5
68489;BME280;55481;48.764;8.936;2023-04-25T08:21:38;96430;;;6.6;78
68489;BME280;55481;48.764;8.936;2023-04-25T08:24:09;96440;;;6.7;77.5
68489;BME280;55481;48.764;8.936;2023-04-25T08:26:48;96440;;;6.6;78
68489;BME280;55481;48.764;8.936;2023-04-25T08:29:11;96440;;;6.7;78
68489;BME280;55481;48.764;8.936;2023-04-25T08:31:42;96450;;;6.7;77.5
68489;BME280;55481;48.764;8.936;2023-04-25T08:34:20;96450;;;6.6;78
68489;BME280;55481;48.764;8.936;2023-04-25T08:36:52;96450;;;6.7;78
68489;BME280;55481;48.764;8.936;2023-04-25T08:39:15;96460;;;6.6;78
68489;BME280;55481;48.764;8.936;2023-04-25T08:41:46;96460;;;6.6;78
68489;BME280;55481;48.764;8.936;2023-04-25T08:44:17;96460;;;6.5;78
68489;BME280;55481;48.764;8.936;2023-04-25T08:46:58;96470;;;6.5;78
68489;BME280;55481;48.764;8.936;2023-04-25T08:49:19;96470;;;6.5;78
68489;BME280;55481;48.764;8.936;2023-04-25T08:51:50;96470;;;6.4;78.5
68489;BME280;55481;48.764;8.936;2023-04-25T08:54:21;96480;;;6.4;78.5
68489;BME280;55481;48.764;8.936;2023-04-25T08:56:53;96480;;;6.5;78.5
68489;BME280;55481;48.764;8.936;2023-04-25T09:06:49;96500;;;6.5;78
68489;BME280;55481;48.764;8.936;2023-04-25T09:09:19;96490;;;6.4;78.5
68489;BME280;55481;48.764;8.936;2023-04-25T09:11:50;96500;;;6.4;78.5
68489;BME280;55481;48.764;8.936;2023-04-25T09:14:21;96510;;;6.3;78.5
68489;BME280;55481;48.764;8.936;2023-04-25T09:16:59;96510;;;6;79
68489;BME280;55481;48.764;8.936;2023-04-25T09:27:03;96540;;;5.8;79.5
68489;BME280;55481;48.764;8.936;2023-04-25T09:29:33;96540;;;5.9;79.5
68489;BME280;55481;48.764;8.936;2023-04-25T09:32:10;96540;;;5.7;79.5
68489;BME280;55481;48.764;8.936;2023-04-25T09:34:38;96540;;;5.8;79.5
68489;BME280;55481;48.764;8.936;2023-04-25T09:39:29;96550;;;5.9;79
68489;BME280;55481;48.764;8.936;2023-04-25T09:42:00;96560;;;5.8;79.5
68489;BME280;55481;48.764;8.936;2023-04-25T09:44:31;96560;;;5.6;80
68489;BME280;55481;48.764;8.936;2023-04-25T09:52:03;96570;;;5.7;80
68489;BME280;55481;48.764;8.936;2023-04-25T09:54:34;96570;;;5.8;80
68489;BME280;55481;48.764;8.936;2023-04-25T09:57:09;96570;;;5.9;79.5
68489;BME280;55481;48.764;8.936;2023-04-25T09:59:49;96570;;;6;79.5
68489;BME280;55481;48.764;8.936;2023-04-25T10:02:19;96570;;;6.1;79
68489;BME280;55481;48.764;8.936;2023-04-25T10:04:50;96580;;;6;79
68489;BME280;55481;48.764;8.936;2023-04-25T10:09:43;96580;;;6.3;79
68489;BME280;55481;48.764;8.936;2023-04-25T10:12:13;96580;;;6.4;78.5
68489;BME280;55481;48.764;8.936;2023-04-25T10:14:45;96580;;;6.5;78.5
68489;BME280;55481;48.764;8.936;2023-04-25T10:17:27;96580;;;6.5;78.5
68489;BME280;55481;48.764;8.936;2023-04-25T10:22:29;96590;;;6.4;79
68489;BME280;55481;48.764;8.936;2023-04-25T10:24:53;96590;;;6.4;79
68489;BME280;55481;48.764;8.936;2023-04-25T10:27:26;96600;;;6.6;78.5
68489;BME280;55481;48.764;8.936;2023-04-25T10:30:02;96590;;;6.7;78.5
68489;BME280;55481;48.764;8.936;2023-04-25T10:32:24;96600;;;6.6;78.5
68489;BME280;55481;48.764;8.936;2023-04-25T10:34:54;96600;;;6.7;78.5
68489;BME280;55481;48.764;8.936;2023-04-25T10:37:25;96600;;;6.5;78.5
68489;BME280;55481;48.764;8.936;2023-04-25T10:39:57;96600;;;6.3;79
68489;BME280;55481;48.764;8.936;2023-04-25T10:45:07;96610;;;6.1;79.5
68489;BME280;55481;48.764;8.936;2023-04-25T10:55:04;96630;;;6.5;78.5
68489;BME280;55481;48.764;8.936;2023-04-25T10:57:36;96630;;;6.2;78.5
68489;BME280;55481;48.764;8.936;2023-04-25T11:00:07;96640;;;6.2;78.5
68489;BME280;55481;48.764;8.936;2023-04-25T11:02:26;96640;;;6.2;78.5
68489;BME280;55481;48.764;8.936;2023-04-25T11:09:55;96650;;;6.1;78.5
68489;BME280;55481;48.764;8.936;2023-04-25T11:12:26;96650;;;6.5;78
68489;BME280;55481;48.764;8.936;2023-04-25T11:14:58;96650;;;6.7;77
68489;BME280;55481;48.764;8.936;2023-04-25T11:17:27;96650;;;6.5;78
68489;BME280;55481;48.764;8.936;2023-04-25T11:22:39;96660;;;6.4;78
68489;BME280;55481;48.764;8.936;2023-04-25T11:25:10;96660;;;6.5;78.5
68489;BME280;55481;48.764;8.936;2023-04-25T11:28:10;96650;;;6.8;78
68489;BME280;55481;48.764;8.936;2023-04-25T11:30:10;96650;;;7;77
68489;BME280;55481;48.764;8.936;2023-04-25T11:34:59;96660;;;6.9;77.5
68489;BME280;55481;48.764;8.936;2023-04-25T11:37:29;96660;;;6.9;78
68489;BME280;55481;48.764;8.936;2023-04-25T11:40:00;96660;;;7;77.5
68489;BME280;55481;48.764;8.936;2023-04-25T11:42:30;96660;;;7;77.5
68489;BME280;55481;48.764;8.936;2023-04-25T11:47:32;96670;;;7;77.5
68489;BME280;55481;48.764;8.936;2023-04-25T11:50:02;96670;;;6.9;77.5
68489;BME280;55481;48.764;8.936;2023-04-25T11:52:40;96670;;;7.1;77
68489;BME280;55481;48.764;8.936;2023-04-25T11:55:16;96680;;;6.9;77.5
68489;BME280;55481;48.764;8.936;2023-04-25T11:57:53;96670;;;6.8;78
68489;BME280;55481;48.764;8.936;2023-04-25T12:00:24;96670;;;6.9;77.5
68489;BME280;55481;48.764;8.936;2023-04-25T12:02:54;96680;;;6.7;78
68489;BME280;55481;48.764;8.936;2023-04-25T12:05:25;96690;;;6.8;78
68489;BME280;55481;48.764;8.936;2023-04-25T12:07:45;96690;;;6.6;78
68489;BME280;55481;48.764;8.936;2023-04-25T12:10:15;96690;;;6.4;79
68489;BME280;55481;48.764;8.936;2023-04-25T12:17:35;96690;;;7;78.5
68489;BME280;55481;48.764;8.936;2023-04-25T12:20:14;96680;;;7.2;78
68489;BME280;55481;48.764;8.936;2023-04-25T12:22:36;96680;;;7.2;78.5
68489;BME280;55481;48.764;8.936;2023-04-25T12:30:08;96690;;;7.6;77.5
68489;BME280;55481;48.764;8.936;2023-04-25T12:32:38;96690;;;7.3;79
68489;BME280;55481;48.764;8.936;2023-04-25T12:35:40;96690;;;7.5;78.5
68489;BME280;55481;48.764;8.936;2023-04-25T12:38:11;96690;;;7.6;78.5
68489;BME280;55481;48.764;8.936;2023-04-25T12:40:51;96690;;;7.6;78.5
68489;BME280;55481;48.764;8.936;2023-04-25T12:43:03;96690;;;7.6;78.5
68489;BME280;55481;48.764;8.936;2023-04-25T12:45:34;96690;;;8.1;78
68489;BME280;55481;48.764;8.936;2023-04-25T12:48:04;96690;;;8.3;77.5
68489;BME280;55481;48.764;8.936;2023-04-25T12:50:34;96680;;;8.4;77.5
68489;BME280;55481;48.764;8.936;2023-04-25T12:55:24;96680;;;9.6;75.5
68489;BME280;55481;48.764;8.936;2023-04-25T12:58:03;96690;;;9.4;76
68489;BME280;55481;48.764;8.936;2023-04-25T13:03:17;96690;;;8.6;78.5
68489;BME280;55481;48.764;8.936;2023-04-25T13:08:07;96690;;;9.1;78
68489;BME280;55481;48.764;8.936;2023-04-25T13:13:08;96700;;;9.3;77
68489;BME280;55481;48.764;8.936;2023-04-25T13:15:43;96690;;;8.9;78
68489;BME280;55481;48.764;8.936;2023-04-25T13:18:23;96690;;;9.1;78.5
68489;BME280;55481;48.764;8.936;2023-04-25T13:20:29;96690;;;9.6;77
68489;BME280;55481;48.764;8.936;2023-04-25T13:25:29;96690;;;9.5;77.5
68489;BME280;55481;48.764;8.936;2023-04-25T13:27:59;96690;;;9.3;78.5
68489;BME280;55481;48.764;8.936;2023-04-25T13:30:34;96690;;;9.9;77.5
68489;BME280;55481;48.764;8.936;2023-04-25T13:35:18;96700;;;10.5;77
68489;BME280;55481;48.764;8.936;2023-04-25T13:37:50;96700;;;11.1;76
68489;BME280;55481;48.764;8.936;2023-04-25T13:45:21;96700;;;9.9;78.5
68489;BME280;55481;48.764;8.936;2023-04-25T13:47:51;96700;;;9.6;79.5
68489;BME280;55481;48.764;8.936;2023-04-25T13:50:22;96700;;;10.6;78
68489;BME280;55481;48.764;8.936;2023-04-25T13:52:52;96700;;;10.4;77
68489;BME280;55481;48.764;8.936;2023-04-25T13:58:04;96710;;;11.1;77
68489;BME280;55481;48.764;8.936;2023-04-25T14:00:35;96700;;;12.3;75
68489;BME280;55481;48.764;8.936;2023-04-25T14:03:10;96700;;;11.4;77
68489;BME280;55481;48.764;8.936;2023-04-25T14:10:24;96700;;;11.6;76.5
68489;BME280;55481;48.764;8.936;2023-04-25T14:12:54;96700;;;11;77.5
68489;BME280;55481;48.764;8.936;2023-04-25T14:15:25;96710;;;10.7;79
68489;BME280;55481;48.764;8.936;2023-04-25T14:22:56;96690;;;12.5;76
68489;BME280;55481;48.764;8.936;2023-04-25T14:25:27;96700;;;11.3;78.5
68489;BME280;55481;48.764;8.936;2023-04-25T14:27:57;96700;;;11.3;79.5
68489;BME280;55481;48.764;8.936;2023-04-25T14:30:28;96710;;;11;79.5
68489;BME280;55481;48.764;8.936;2023-04-25T14:37:59;96710;;;10.3;81
68489;BME280;55481;48.764;8.936;2023-04-25T14:40:31;96710;;;10.4;80.5
68489;BME280;55481;48.764;8.936;2023-04-25T14:45:30;96700;;;12.4;77
68489;BME280;55481;48.764;8.936;2023-04-25T14:50:54;96690;;;11.6;77.5
68489;BME280;55481;48.764;8.936;2023-04-25T14:55:55;96700;;;12.7;76.5
68489;BME280;55481;48.764;8.936;2023-04-25T14:58:35;96690;;;13.1;75.5
68489;BME280;55481;48.764;8.936;2023-04-25T15:03:15;96690;;;13.5;74
68489;BME280;55481;48.764;8.936;2023-04-25T15:08:16;96710;;;10.9;80.5
68489;BME280;55481;48.764;8.936;2023-04-25T15:10:46;96710;;;10.7;80.5
68489;BME280;55481;48.764;8.936;2023-04-25T15:13:17;96700;;;11.1;80
68489;BME280;55481;48.764;8.936;2023-04-25T15:15:46;96700;;;12;77.5
68489;BME280;55481;48.764;8.936;2023-04-25T15:18:27;96700;;;12.3;76.5
68489;BME280;55481;48.764;8.936;2023-04-25T15:26:09;96710;;;10.8;79.5
68489;BME280;55481;48.764;8.936;2023-04-25T15:28:48;96720;;;11;79.5
68489;BME280;55481;48.764;8.936;2023-04-25T15:31:00;96720;;;10.9;79
68489;BME280;55481;48.764;8.936;2023-04-25T15:36:02;96720;;;11;79
68489;BME280;55481;48.764;8.936;2023-04-25T15:38:32;96720;;;11.1;79
68489;BME280;55481;48.764;8.936;2023-04-25T15:43:32;96730;;;11;78
68489;BME280;55481;48.764;8.936;2023-04-25T15:46:12;96730;;;10.8;78.5
68489;BME280;55481;48.764;8.936;2023-04-25T15:48:44;96730;;;10.4;79
68489;BME280;55481;48.764;8.936;2023-04-25T15:51:07;96730;;;10.4;79.5
68489;BME280;55481;48.764;8.936;2023-04-25T15:58:25;96740;;;9.7;80.5
68489;BME280;55481;48.764;8.936;2023-04-25T16:00:55;96730;;;9.9;80
68489;BME280;55481;48.764;8.936;2023-04-25T16:08:36;96720;;;9.8;79.5
68489;BME280;55481;48.764;8.936;2023-04-25T16:13:26;96730;;;10;79
68489;BME280;55481;48.764;8.936;2023-04-25T16:15:56;96730;;;10;79
68489;BME280;55481;48.764;8.936;2023-04-25T16:18:26;96740;;;10;79.5
68489;BME280;55481;48.764;8.936;2023-04-25T16:20:56;96730;;;9.8;79
68489;BME280;55481;48.764;8.936;2023-04-25T16:23:36;96740;;;9.8;79.5
68489;BME280;55481;48.764;8.936;2023-04-25T16:25:57;96740;;;9.6;80
68489;BME280;55481;48.764;8.936;2023-04-25T16:28:26;96740;;;9.5;80
68489;BME280;55481;48.764;8.936;2023-04-25T16:33:16;96740;;;9.5;79.5
68489;BME280;55481;48.764;8.936;2023-04-25T16:38:48;96750;;;9.3;80
68489;BME280;55481;48.764;8.936;2023-04-25T16:43:40;96750;;;9.5;79.5
68489;BME280;55481;48.764;8.936;2023-04-25T16:46:11;96750;;;9.5;79
68489;BME280;55481;48.764;8.936;2023-04-25T16:48:42;96750;;;9.4;79.5
68489;BME280;55481;48.764;8.936;2023-04-25T16:51:12;96750;;;9.4;79.5
68489;BME280;55481;48.764;8.936;2023-04-25T16:53:39;96750;;;9.4;79.5
68489;BME280;55481;48.764;8.936;2023-04-25T16:56:10;96750;;;9.5;79
68489;BME280;55481;48.764;8.936;2023-04-25T16:58:41;96760;;;9.5;79
68489;BME280;55481;48.764;8.936;2023-04-25T17:05:52;96770;;;9.1;79.5
68489;BME280;55481;48.764;8.936;2023-04-25T17:08:21;96770;;;9.2;79
68489;BME280;55481;48.764;8.936;2023-04-25T17:10:52;96770;;;9.1;79
68489;BME280;55481;48.764;8.936;2023-04-25T17:18:23;96780;;;8.9;79
68489;BME280;55481;48.764;8.936;2023-04-25T17:20:54;96780;;;8.9;79
68489;BME280;55481;48.764;8.936;2023-04-25T17:23:25;96790;;;8.8;78.5
68489;BME280;55481;48.764;8.936;2023-04-25T17:26:06;96790;;;8.8;78.5
68489;BME280;55481;48.764;8.936;2023-04-25T17:28:37;96800;;;9.2;77.5
68489;BME280;55481;48.764;8.936;2023-04-25T17:31:07;96810;;;9.5;76.5
68489;BME280;55481;48.764;8.936;2023-04-25T17:33:37;96810;;;9.2;76.5
68489;BME280;55481;48.764;8.936;2023-04-25T17:36:17;96810;;;8.9;77
68489;BME280;55481;48.764;8.936;2023-04-25T17:40:57;96810;;;8.3;78
68489;BME280;55481;48.764;8.936;2023-04-25T17:43:27;96820;;;8;78.5
68489;BME280;55481;48.764;8.936;2023-04-25T17:45:58;96830;;;7.8;79
68489;BME280;55481;48.764;8.936;2023-04-25T17:48:28;96840;;;8.2;78.5
68489;BME280;55481;48.764;8.936;2023-04-25T17:50:58;96830;;;9;75.5
68489;BME280;55481;48.764;8.936;2023-04-25T17:53:30;96840;;;8.3;77
68489;BME280;55481;48.764;8.936;2023-04-25T18:01:01;96840;;;7.5;80
68489;BME280;55481;48.764;8.936;2023-04-25T18:11:25;96850;;;7.2;80
68489;BME280;55481;48.764;8.936;2023-04-25T18:13:55;96860;;;7.1;80
68489;BME280;55481;48.764;8.936;2023-04-25T18:16:26;96860;;;7.2;80
68489;BME280;55481;48.764;8.936;2023-04-25T18:28:47;96860;;;7.2;80
68489;BME280;55481;48.764;8.936;2023-04-25T18:31:17;96860;;;7.2;80
68489;BME280;55481;48.764;8.936;2023-04-25T18:33:49;96870;;;7.2;80
68489;BME280;55481;48.764;8.936;2023-04-25T18:36:06;96870;;;7.2;79.5
68489;BME280;55481;48.764;8.936;2023-04-25T18:46:08;96880;;;6.8;81
68489;BME280;55481;48.764;8.936;2023-04-25T18:48:42;96880;;;6.7;81
68489;BME280;55481;48.764;8.936;2023-04-25T18:51:09;96880;;;6.8;80.5
68489;BME280;55481;48.764;8.936;2023-04-25T18:53:40;96890;;;6.9;80.5
68489;BME280;55481;48.764;8.936;2023-04-25T18:56:10;96900;;;7;80
68489;BME280;55481;48.764;8.936;2023-04-25T18:58:41;96910;;;6.9;80
68489;BME280;55481;48.764;8.936;2023-04-25T19:01:11;96910;;;6.8;80.5
68489;BME280;55481;48.764;8.936;2023-04-25T19:03:53;96920;;;6.7;80.5
68489;BME280;55481;48.764;8.936;2023-04-25T19:06:26;96920;;;6.7;80.5
68489;BME280;55481;48.764;8.936;2023-04-25T19:09:03;96920;;;6.6;80.5
68489;BME280;55481;48.764;8.936;2023-04-25T19:11:34;96920;;;6.6;80.5
68489;BME280;55481;48.764;8.936;2023-04-25T19:16:14;96910;;;6.7;80.5
68489;BME280;55481;48.764;8.936;2023-04-25T19:18:44;96900;;;6.7;80.5
68489;BME280;55481;48.764;8.936;2023-04-25T19:21:15;96890;;;6.9;80
68489;BME280;55481;48.764;8.936;2023-04-25T19:23:45;96910;;;6.9;80
68489;BME280;55481;48.764;8.936;2023-04-25T19:26:15;96930;;;6.8;80
68489;BME280;55481;48.764;8.936;2023-04-25T19:34:07;96930;;;6.9;79.5
68489;BME280;55481;48.764;8.936;2023-04-25T19:36:38;96940;;;6.7;80.5
68489;BME280;55481;48.764;8.936;2023-04-25T19:38:58;96940;;;6.7;80
68489;BME280;55481;48.764;8.936;2023-04-25T19:43:59;96940;;;6.6;80.5
68489;BME280;55481;48.764;8.936;2023-04-25T19:46:29;96940;;;6.6;80.5
68489;BME280;55481;48.764;8.936;2023-04-25T19:48:59;96940;;;6.6;80.5
68489;BME280;55481;48.764;8.936;2023-04-25T19:58:49;96940;;;6.7;80
68489;BME280;55481;48.764;8.936;2023-04-25T20:01:20;96950;;;6.7;80
68489;BME280;55481;48.764;8.936;2023-04-25T20:03:51;96950;;;6.6;80